Time;durP1;ratioP1;P1;durP2;ratioP2;P2;SDS_P1;SDS_P2;PMS_P1;PMS_P2;Temp;Humidity;BMP_temperature;BMP_pressure;BME280_temperature;BME280_humidity;BME280_pressure;Samples;Min_cycle;Max_cycle;Signal;HPM_P1;HPM_P2
2022/06/20 00:00:06;;;;;;;12.75;4.35;;;;;;;16.71;65.87;100864.00;4863336;28;119990;-80
2022/06/20 00:02:36;;;;;;;9.05;3.92;;;;;;;16.73;65.68;100858.72;4851459;28;120293;-80
2022/06/20 00:05:04;;;;;;;11.45;3.88;;;;;;;16.68;64.99;100853.91;4885778;28;119456;-79
2022/06/20 00:07:30;;;;;;;12.55;3.60;;;;;;;16.68;65.02;100851.13;4882406;28;121658;-80
2022/06/20 00:09:55;;;;;;;11.20;4.40;;;;;;;16.67;65.27;100849.63;4890366;28;119751;-80
2022/06/20 00:12:25;;;;;;;8.25;3.80;;;;;;;16.73;65.33;100853.19;4897497;28;119891;-80
2022/06/20 00:14:54;;;;;;;13.25;4.35;;;;;;;16.74;65.43;100846.41;4898321;28;120415;-79
2022/06/20 00:17:23;;;;;;;10.35;3.15;;;;;;;16.71;64.58;100848.16;4886908;28;120064;-79
2022/06/20 00:19:49;;;;;;;8.90;3.72;;;;;;;16.71;64.87;100850.16;4913838;28;119495;-79
2022/06/20 00:22:15;;;;;;;10.57;3.53;;;;;;;16.70;65.29;100859.72;4907427;28;122241;-79
2022/06/20 00:24:42;;;;;;;8.88;3.67;;;;;;;16.69;65.50;100858.19;4912786;28;119659;-79
2022/06/20 00:27:09;;;;;;;14.13;3.83;;;;;;;16.69;64.75;100852.66;4895977;28;119932;-79
2022/06/20 00:29:39;;;;;;;11.43;3.70;;;;;;;16.65;64.64;100852.84;4894855;28;119804;-79
2022/06/20 00:32:21;;;;;;;13.38;4.25;;;;;;;16.59;65.19;100865.88;4912576;28;119606;-80
2022/06/20 00:34:46;;;;;;;14.30;4.43;;;;;;;16.58;64.82;100865.13;4918449;28;119626;-80
2022/06/20 00:37:19;;;;;;;13.02;4.95;;;;;;;16.59;64.60;100868.66;4913880;28;119363;-81
2022/06/20 00:39:46;;;;;;;17.30;4.90;;;;;;;16.60;65.26;100863.88;4915483;28;120241;-80
2022/06/20 00:42:12;;;;;;;12.77;4.60;;;;;;;16.56;64.92;100861.28;4899226;28;121133;-79
2022/06/20 00:45:01;;;;;;;12.52;4.95;;;;;;;16.63;65.98;100866.41;4916338;28;119496;-80
2022/06/20 00:47:47;;;;;;;10.52;4.35;;;;;;;16.64;65.40;100867.94;4911028;28;119502;-80
2022/06/20 00:50:35;;;;;;;14.75;5.00;;;;;;;16.65;65.53;100852.84;4920855;28;119861;-80
2022/06/20 00:53:44;;;;;;;12.00;4.53;;;;;;;16.62;64.89;100853.06;4914118;28;119902;-81
2022/06/20 00:57:08;;;;;;;11.48;5.03;;;;;;;16.66;65.24;100859.16;4912967;28;120061;-79
2022/06/20 01:00:18;;;;;;;20.40;4.95;;;;;;;16.67;65.47;100861.44;4903855;28;119706;-80
2022/06/20 01:03:11;;;;;;;14.38;5.25;;;;;;;16.63;65.15;100871.97;4917090;28;119445;-79
2022/06/20 01:06:13;;;;;;;15.65;5.47;;;;;;;16.68;65.69;100876.81;4907332;28;119431;-80
2022/06/20 01:09:05;;;;;;;11.77;5.03;;;;;;;16.66;64.73;100867.44;4909577;28;119848;-79
2022/06/20 01:11:51;;;;;;;14.48;5.38;;;;;;;16.62;65.16;100875.22;4917384;28;119521;-80
2022/06/20 01:14:38;;;;;;;12.35;5.00;;;;;;;16.63;65.09;100877.50;4919370;28;120099;-79
2022/06/20 01:17:36;;;;;;;12.45;5.32;;;;;;;16.57;65.18;100863.59;4923767;28;119479;-79
2022/06/20 01:20:34;;;;;;;14.55;6.38;;;;;;;16.64;65.80;100856.09;4914291;28;119961;-80
2022/06/20 01:23:26;;;;;;;15.52;5.20;;;;;;;16.66;64.95;100867.44;4901925;28;119479;-80
2022/06/20 01:26:17;;;;;;;11.88;5.70;;;;;;;16.65;65.15;100869.47;4918738;28;119666;-80
2022/06/20 01:29:04;;;;;;;16.15;6.32;;;;;;;16.65;65.39;100882.56;4909534;28;119712;-80
2022/06/20 01:31:54;;;;;;;13.90;5.75;;;;;;;16.66;66.13;100884.06;4915631;28;120080;-79
2022/06/20 01:34:38;;;;;;;11.70;5.22;;;;;;;16.67;66.20;100882.84;4918119;28;119807;-80
2022/06/20 01:37:23;;;;;;;17.83;5.57;;;;;;;16.69;66.24;100883.88;4917375;28;118788;-80
2022/06/20 01:40:14;;;;;;;12.77;5.30;;;;;;;16.72;65.67;100891.22;4911916;28;119527;-80
2022/06/20 01:42:58;;;;;;;11.93;5.40;;;;;;;16.70;65.43;100887.41;4922648;28;119838;-79
2022/06/20 01:45:57;;;;;;;12.50;5.70;;;;;;;16.71;65.72;100873.06;4917362;28;119930;-80
2022/06/20 01:48:52;;;;;;;18.10;5.82;;;;;;;16.72;65.46;100862.75;4919163;28;119893;-80
2022/06/20 01:52:07;;;;;;;11.68;4.97;;;;;;;16.70;65.64;100870.78;4910172;28;120173;-80
2022/06/20 01:54:54;;;;;;;;;;;;;;;16.71;65.52;100872.31;4907392;28;119616;-79
2022/06/20 01:57:41;;;;;;;14.32;5.78;;;;;;;16.70;65.18;100865.25;4916252;28;119423;-80
2022/06/20 02:00:25;;;;;;;18.98;6.95;;;;;;;16.65;65.68;100847.31;4916427;28;119777;-80
2022/06/20 02:03:13;;;;;;;14.00;6.13;;;;;;;16.69;65.18;100844.34;4892536;28;119719;-80
2022/06/20 02:05:58;;;;;;;15.25;6.80;;;;;;;16.64;65.42;100842.25;4902693;28;119503;-79
2022/06/20 02:08:48;;;;;;;14.70;6.53;;;;;;;16.68;65.09;100848.38;4913164;28;119763;-80
2022/06/20 02:11:40;;;;;;;16.17;6.95;;;;;;;16.67;65.65;100844.06;4920254;28;119558;-81
2022/06/20 02:14:35;;;;;;;16.60;6.75;;;;;;;16.66;65.46;100848.84;4899517;28;120115;-80
2022/06/20 02:17:29;;;;;;;13.25;6.50;;;;;;;16.66;65.76;100843.31;4899304;28;119377;-80
2022/06/20 02:20:19;;;;;;;16.07;6.93;;;;;;;16.61;65.25;100835.69;4920436;28;119414;-80
2022/06/20 02:23:06;;;;;;;14.95;6.88;;;;;;;16.61;64.60;100840.47;4920556;28;120432;-80
2022/06/20 02:25:53;;;;;;;18.50;7.35;;;;;;;16.55;65.23;100838.38;4919160;28;119739;-80
2022/06/20 02:28:47;;;;;;;15.60;7.53;;;;;;;16.54;65.32;100836.84;4917369;28;119277;-80
2022/06/20 02:31:32;;;;;;;16.17;7.40;;;;;;;16.52;65.66;100833.81;4921548;28;119377;-80
2022/06/20 02:34:16;;;;;;;16.48;8.18;;;;;;;16.47;65.68;100820.69;4923061;28;119431;-79
2022/06/20 02:37:09;;;;;;;14.85;7.13;;;;;;;16.54;65.96;100823.00;4916360;28;120434;-79
2022/06/20 02:40:00;;;;;;;17.17;7.60;;;;;;;16.55;65.44;100821.75;4928360;28;119430;-80
2022/06/20 02:42:54;;;;;;;17.73;7.45;;;;;;;16.57;66.03;100827.59;4918300;28;119830;-79
2022/06/20 02:45:40;;;;;;;17.65;8.20;;;;;;;16.56;66.30;100828.84;4912722;28;119578;-80
2022/06/20 02:48:28;;;;;;;15.77;7.53;;;;;;;16.53;65.88;100810.41;4909797;28;119728;-81
2022/06/20 02:51:17;;;;;;;14.13;7.32;;;;;;;16.59;65.71;100827.13;4915012;28;119613;-79
2022/06/20 02:54:04;;;;;;;13.88;7.70;;;;;;;16.58;65.95;100828.34;4904959;28;119425;-79
2022/06/20 02:56:52;;;;;;;15.15;7.63;;;;;;;16.57;65.73;100821.31;4923006;28;119872;-80
2022/06/20 02:59:43;;;;;;;14.27;7.72;;;;;;;16.59;65.89;100829.88;4919492;28;119398;-80
2022/06/20 03:02:30;;;;;;;17.27;8.20;;;;;;;16.60;66.03;100827.88;4916736;28;119544;-80
2022/06/20 03:05:15;;;;;;;14.27;7.82;;;;;;;16.56;66.07;100823.31;4921851;28;120389;-80
2022/06/20 03:07:59;;;;;;;15.07;7.75;;;;;;;16.61;66.41;100823.84;4915581;28;119877;-80
2022/06/20 03:10:50;;;;;;;15.57;8.05;;;;;;;16.63;66.63;100829.66;4908032;28;119650;-80
2022/06/20 03:13:37;;;;;;;15.05;7.72;;;;;;;16.65;66.14;100827.16;4906182;28;119715;-80
2022/06/20 03:16:22;;;;;;;14.68;8.02;;;;;;;16.63;66.03;100815.81;4913492;28;119944;-79
2022/06/20 03:19:22;;;;;;;13.27;7.55;;;;;;;16.69;65.78;100816.66;4915627;28;119700;-79
2022/06/20 03:22:12;;;;;;;14.10;7.65;;;;;;;16.68;65.82;100818.66;4920249;28;119434;-80
2022/06/20 03:24:56;;;;;;;16.00;8.32;;;;;;;16.61;65.93;100807.25;4918723;28;119964;-80
2022/06/20 03:27:41;;;;;;;18.13;8.02;;;;;;;16.61;65.99;100796.16;4911519;28;119474;-79
2022/06/20 03:30:35;;;;;;;14.48;8.00;;;;;;;16.65;65.74;100807.78;4914139;28;120176;-80
2022/06/20 03:33:21;;;;;;;13.52;7.72;;;;;;;16.65;65.83;100807.78;4910928;28;119888;-79
2022/06/20 03:36:13;;;;;;;15.02;8.05;;;;;;;16.64;65.48;100812.56;4917154;28;119424;-80
2022/06/20 03:38:57;;;;;;;15.13;8.70;;;;;;;16.66;66.04;100809.28;4909583;28;119665;-79
2022/06/20 03:41:41;;;;;;;13.65;8.23;;;;;;;16.65;66.42;100810.53;4917567;28;119367;-79
2022/06/20 03:44:54;;;;;;;18.77;8.30;;;;;;;16.68;65.89;100813.13;4919399;28;119925;-79
2022/06/20 03:47:44;;;;;;;15.38;7.32;;;;;;;16.65;65.70;100816.84;4914137;28;119819;-80
2022/06/20 03:50:44;;;;;;;15.50;8.05;;;;;;;16.68;65.71;100820.66;4910416;28;119439;-80
2022/06/20 03:53:33;;;;;;;12.52;7.32;;;;;;;16.68;65.74;100832.50;4914363;28;119758;-80
2022/06/20 03:56:36;;;;;;;14.60;8.57;;;;;;;16.64;66.19;100828.41;4895903;28;119462;-79
2022/06/20 03:59:54;;;;;;;15.82;7.90;;;;;;;16.70;65.96;100846.63;4913109;28;119563;-80
2022/06/20 04:02:46;;;;;;;15.95;7.97;;;;;;;16.72;66.28;100843.38;4898219;28;119843;-80
2022/06/20 04:05:54;;;;;;;14.65;7.70;;;;;;;16.73;66.09;100842.13;4913847;28;119544;-80
2022/06/20 04:12:10;;;;;;;12.77;8.10;;;;;;;16.77;66.43;100856.50;4909403;28;119406;-80
2022/06/20 04:15:08;;;;;;;13.27;7.68;;;;;;;16.75;66.22;100845.16;4918746;28;119491;-80
2022/06/20 04:21:20;;;;;;;12.13;7.43;;;;;;;16.74;66.06;100849.94;4910409;28;119443;-81
2022/06/20 04:24:18;;;;;;;13.80;7.18;;;;;;;16.77;65.86;100853.72;4911166;28;119847;-79
2022/06/20 04:27:26;;;;;;;13.73;7.57;;;;;;;16.78;66.68;100833.09;4905973;28;119660;-80
2022/06/20 04:30:17;;;;;;;12.02;6.97;;;;;;;16.88;66.18;100843.53;4917085;28;120025;-79
2022/06/20 04:33:17;;;;;;;15.18;6.57;;;;;;;16.95;66.17;100836.78;4910969;28;119851;-79
2022/06/20 04:36:23;;;;;;;12.18;6.15;;;;;;;17.00;66.63;100827.00;4915584;28;119493;-80
2022/06/20 04:39:27;;;;;;;16.75;6.40;;;;;;;17.03;66.32;100824.00;4913394;28;119609;-80
2022/06/20 04:42:11;;;;;;;13.60;5.93;;;;;;;17.08;66.69;100823.28;4916369;28;119599;-80
2022/06/20 04:45:02;;;;;;;14.68;5.97;;;;;;;17.14;66.86;100820.56;4915567;28;120039;-80
2022/06/20 04:47:55;;;;;;;15.05;5.93;;;;;;;17.19;66.68;100828.16;4919575;28;119926;-80
2022/06/20 04:50:46;;;;;;;16.25;5.55;;;;;;;17.26;66.96;100838.03;4914407;28;120250;-80
2022/06/20 04:53:33;;;;;;;11.27;5.07;;;;;;;17.31;66.86;100834.56;4914951;28;119506;-80
2022/06/20 04:56:28;;;;;;;8.70;4.80;;;;;;;17.35;67.01;100840.63;4908129;28;119835;-79
2022/06/20 04:59:28;;;;;;;14.05;5.07;;;;;;;17.41;67.36;100846.97;4917895;28;119818;-80
2022/06/20 05:02:22;;;;;;;12.32;5.38;;;;;;;17.47;67.56;100848.53;4916792;28;119469;-80
2022/06/20 05:05:15;;;;;;;16.83;6.60;;;;;;;17.57;68.02;100840.03;4921434;28;119561;-80
2022/06/20 05:08:02;;;;;;;17.85;6.47;;;;;;;17.66;67.89;100826.69;4916037;28;119478;-80
2022/06/20 05:10:55;;;;;;;15.82;6.13;;;;;;;17.75;67.65;100834.88;4916044;28;119567;-79
2022/06/20 05:14:05;;;;;;;14.68;5.82;;;;;;;17.83;67.44;100837.16;4910196;28;119377;-80
2022/06/20 05:16:52;;;;;;;13.77;6.25;;;;;;;17.83;67.66;100824.06;4909944;28;119537;-79
2022/06/20 05:19:42;;;;;;;15.32;5.53;;;;;;;17.92;66.77;100839.72;4915705;28;119867;-81
2022/06/20 05:22:32;;;;;;;14.75;5.97;;;;;;;17.88;66.97;100831.63;4909375;28;119813;-81
2022/06/20 05:25:21;;;;;;;16.63;6.57;;;;;;;17.93;67.03;100832.91;4902502;28;119526;-80
2022/06/20 05:28:22;;;;;;;14.57;6.30;;;;;;;17.92;67.54;100821.06;4914020;28;120855;-80
2022/06/20 05:31:07;;;;;;;15.30;7.20;;;;;;;17.82;67.82;100802.34;4916302;28;120018;-79
2022/06/20 05:34:02;;;;;;;17.90;7.72;;;;;;;17.97;67.94;100814.00;4918078;28;120031;-79
2022/06/20 05:36:36;;;;;;;14.45;6.20;;;;;;;17.98;68.04;100801.66;4914040;28;120686;-80
2022/06/20 05:39:17;;;;;;;;;;;;;;;18.02;67.37;100799.41;4905894;28;119815;-80
2022/06/20 05:41:44;;;;;;;12.35;5.40;;;;;;;18.05;67.64;100801.19;4911216;28;120078;-80
2022/06/20 05:44:12;;;;;;;14.52;5.80;;;;;;;18.06;67.52;100809.03;4913203;28;119969;-79
2022/06/20 05:46:44;;;;;;;10.48;4.95;;;;;;;18.09;67.49;100807.25;4925791;28;119648;-80
2022/06/20 05:49:16;;;;;;;10.98;4.93;;;;;;;18.13;67.50;100805.00;4916563;28;119674;-79
2022/06/20 05:51:44;;;;;;;12.52;4.38;;;;;;;18.11;67.59;100810.28;4919497;28;119593;-79
2022/06/20 05:54:21;;;;;;;9.80;3.75;;;;;;;18.15;67.63;100805.25;4904268;28;119525;-80
2022/06/20 05:56:57;;;;;;;15.95;4.00;;;;;;;18.13;67.11;100801.47;4912173;28;120264;-80
2022/06/20 05:59:38;;;;;;;12.00;3.88;;;;;;;18.18;67.18;100809.03;4916894;28;119372;-80
2022/06/20 06:02:17;;;;;;;13.80;3.72;;;;;;;18.17;67.31;100813.06;4915986;28;120470;-80
2022/06/20 06:04:52;;;;;;;9.07;3.58;;;;;;;18.19;66.91;100811.31;4915554;28;119554;-80
2022/06/20 06:07:27;;;;;;;12.65;3.42;;;;;;;18.20;66.79;100812.06;4917068;28;119788;-80
2022/06/20 06:10:01;;;;;;;13.75;3.60;;;;;;;18.21;66.90;100808.78;4915740;28;120086;-80
2022/06/20 06:12:36;;;;;;;14.63;3.83;;;;;;;18.15;66.26;100805.25;4915376;28;119845;-80
2022/06/20 06:15:36;;;;;;;12.25;3.50;;;;;;;18.22;66.58;100809.59;4905025;28;120032;-80
2022/06/20 06:18:06;;;;;;;12.35;3.60;;;;;;;18.19;66.51;100799.44;4916173;28;120445;-80
2022/06/20 06:20:36;;;;;;;8.80;3.15;;;;;;;18.20;66.33;100800.97;4911642;28;119585;-80
2022/06/20 06:23:08;;;;;;;8.05;3.10;;;;;;;18.21;66.53;100796.94;4916281;28;119506;-80
2022/06/20 06:25:42;;;;;;;10.05;3.83;;;;;;;18.23;66.85;100795.19;4913470;28;120766;-80
2022/06/20 06:28:16;;;;;;;;;;;;;;;18.24;66.58;100802.28;4913784;28;119477;-80
2022/06/20 06:30:48;;;;;;;;;;;;;;;18.25;66.67;100792.69;4912151;28;120378;-80
2022/06/20 06:33:49;;;;;;;8.40;3.78;;;;;;;18.27;66.98;100790.16;4911014;28;119770;-80
2022/06/20 06:36:45;;;;;;;13.50;4.05;;;;;;;18.27;67.00;100789.41;4916318;28;119793;-79
2022/06/20 06:39:19;;;;;;;10.07;3.63;;;;;;;18.33;66.93;100793.69;4917259;28;119482;-80
2022/06/20 06:41:48;;;;;;;10.98;3.50;;;;;;;18.35;66.36;100796.72;4919345;28;120931;-80
2022/06/20 06:44:24;;;;;;;9.82;3.60;;;;;;;18.33;66.53;100788.16;4917562;28;119446;-80
2022/06/20 06:46:53;;;;;;;12.65;3.60;;;;;;;18.35;65.80;100793.94;4910299;28;120102;-79
2022/06/20 06:49:31;;;;;;;13.15;3.88;;;;;;;18.35;65.77;100805.06;4916446;28;119536;-80
2022/06/20 06:52:08;;;;;;;10.23;3.50;;;;;;;18.34;65.62;100811.13;4914450;28;119710;-80
2022/06/20 06:54:43;;;;;;;10.05;3.30;;;;;;;18.32;65.83;100808.84;4917796;28;119721;-80
2022/06/20 06:57:29;;;;;;;12.18;3.63;;;;;;;18.29;65.41;100812.63;4921215;28;120034;-81
2022/06/20 07:00:04;;;;;;;8.90;3.20;;;;;;;18.26;65.47;100815.66;4910355;28;119463;-80
2022/06/20 07:02:37;;;;;;;9.38;3.33;;;;;;;18.22;65.74;100810.34;4919726;28;119533;-80
2022/06/20 07:05:14;;;;;;;10.00;3.30;;;;;;;18.09;65.90;100798.94;4921794;28;119775;-79
2022/06/20 07:08:00;;;;;;;9.65;3.78;;;;;;;18.22;nan;100810.34;4911535;28;119532;-80
2022/06/20 07:10:36;;;;;;;7.38;3.25;;;;;;;18.23;66.11;100811.84;4920534;28;119343;-80
2022/06/20 07:13:15;;;;;;;13.00;4.20;;;;;;;18.22;66.42;100804.03;4916225;28;119516;-80
2022/06/20 07:15:43;;;;;;;8.88;3.45;;;;;;;18.25;66.10;100806.56;4901101;28;121618;-80
2022/06/20 07:18:39;;;;;;;9.05;3.63;;;;;;;18.18;66.05;100795.91;4923136;28;119790;-80
2022/06/20 07:21:05;;;;;;;9.00;3.50;;;;;;;18.30;66.21;100810.59;4909108;28;119945;-80
2022/06/20 07:23:31;;;;;;;9.85;4.03;;;;;;;18.34;66.32;100811.88;4902340;28;119608;-80
2022/06/20 07:25:57;;;;;;;10.77;3.92;;;;;;;18.39;66.48;100827.03;4924397;28;119434;-80
2022/06/20 07:28:42;;;;;;;10.35;4.20;;;;;;;18.43;66.85;100830.31;4907571;28;120530;-80
2022/06/20 07:31:14;;;;;;;10.43;3.90;;;;;;;18.37;66.67;100821.97;4912947;28;119739;-80
2022/06/20 07:33:59;;;;;;;11.27;3.92;;;;;;;18.37;65.81;100827.53;4913492;28;119862;-80
2022/06/20 07:36:29;;;;;;;12.23;3.53;;;;;;;18.40;65.99;100839.66;4914304;28;119621;-80
2022/06/20 07:38:58;;;;;;;9.88;4.03;;;;;;;18.34;65.75;100831.31;4920189;28;119873;-79
2022/06/20 07:41:47;;;;;;;8.60;3.65;;;;;;;18.35;66.00;100835.59;4918421;28;119586;-80
2022/06/20 07:44:25;;;;;;;7.85;4.00;;;;;;;18.27;65.58;100839.38;4902099;28;122581;-80
2022/06/20 07:47:24;;;;;;;9.02;3.50;;;;;;;18.22;63.88;100843.66;4919146;28;119462;-80
2022/06/20 07:49:54;;;;;;;8.43;3.75;;;;;;;18.18;64.66;100837.56;4923062;28;119481;-80
2022/06/20 07:52:47;;;;;;;9.88;4.20;;;;;;;18.16;64.50;100837.31;4904984;28;119840;-80
2022/06/20 07:55:22;;;;;;;10.40;4.40;;;;;;;18.16;64.91;100828.22;4928963;28;120013;-80
2022/06/20 07:57:56;;;;;;;8.90;4.40;;;;;;;18.14;64.65;100831.50;4916602;28;120958;-79
2022/06/20 08:00:42;;;;;;;9.70;3.78;;;;;;;18.09;64.17;100821.13;4917816;28;119545;-79
2022/06/20 08:03:25;;;;;;;8.10;3.60;;;;;;;18.06;64.48;100805.47;4898351;28;120698;-80
2022/06/20 08:06:22;;;;;;;8.07;4.53;;;;;;;18.07;65.16;100810.53;4895618;28;122248;-79
2022/06/20 08:08:53;;;;;;;9.75;4.18;;;;;;;18.05;65.37;100813.06;4917981;28;119838;-80
2022/06/20 08:11:43;;;;;;;11.55;4.20;;;;;;;18.05;65.56;100815.06;4920349;28;119682;-80
2022/06/20 08:14:21;;;;;;;9.38;4.00;;;;;;;18.06;65.70;100819.38;4910348;28;122152;-80
2022/06/20 08:16:51;;;;;;;10.05;4.10;;;;;;;18.02;66.15;100813.28;4914223;28;119997;-80
2022/06/20 08:19:17;;;;;;;8.75;4.00;;;;;;;18.04;66.45;100810.78;4917337;28;120018;-80
2022/06/20 08:21:46;;;;;;;7.38;4.05;;;;;;;18.12;66.73;100805.50;4914185;28;119728;-80
2022/06/20 08:24:18;;;;;;;9.85;4.32;;;;;;;18.21;67.32;100813.59;4901850;28;121150;-80
2022/06/20 08:26:54;;;;;;;9.03;4.70;;;;;;;18.31;67.04;100798.25;4908178;28;120602;-79
2022/06/20 08:30:09;;;;;;;10.45;4.43;;;;;;;18.40;66.82;100795.22;4860270;28;119676;-79
2022/06/20 08:32:35;;;;;;;11.43;4.65;;;;;;;18.57;66.96;100804.34;4873961;28;119708;-79
2022/06/20 08:35:27;;;;;;;9.18;4.60;;;;;;;18.71;66.29;100797.09;4871961;28;120984;-80
2022/06/20 08:38:23;;;;;;;6.55;4.20;;;;;;;18.85;66.60;100800.88;4873630;28;119905;-80
2022/06/20 08:41:09;;;;;;;9.00;3.75;;;;;;;18.95;65.75;100802.91;4872679;28;120333;-80
2022/06/20 08:44:04;;;;;;;8.38;3.55;;;;;;;19.01;65.91;100789.75;4845000;28;119514;-80
2022/06/20 08:47:06;;;;;;;5.57;3.10;;;;;;;19.22;64.97;100797.81;4868452;28;119645;-80
2022/06/20 08:49:38;;;;;;;11.52;3.55;;;;;;;19.30;64.63;100794.00;4862036;28;119514;-80
2022/06/20 08:52:20;;;;;;;8.90;3.70;;;;;;;19.45;65.29;100806.88;4879457;28;119701;-79
2022/06/20 08:55:07;;;;;;;7.45;3.28;;;;;;;19.56;62.80;100793.72;4864030;28;121640;-80
2022/06/20 08:58:00;;;;;;;6.13;2.72;;;;;;;19.65;62.82;100798.28;4838620;28;119969;-80
2022/06/20 09:00:42;;;;;;;6.78;3.08;;;;;;;19.74;63.01;100800.75;4862585;28;119800;-80
2022/06/20 09:03:29;;;;;;;5.70;2.95;;;;;;;19.88;62.12;100799.72;4864931;28;120342;-80
2022/06/20 09:06:13;;;;;;;6.05;3.03;;;;;;;20.01;61.85;100799.13;4877146;28;119567;-80
2022/06/20 09:08:57;;;;;;;7.47;2.78;;;;;;;20.09;61.54;100802.13;4910711;28;119551;-80
2022/06/20 09:11:42;;;;;;;5.90;3.25;;;;;;;20.11;60.82;100789.22;4911778;28;119230;-80
2022/06/20 09:14:20;;;;;;;4.95;2.90;;;;;;;20.09;57.99;100805.66;4910838;28;119859;-80
2022/06/20 09:17:18;;;;;;;7.85;3.42;;;;;;;20.01;59.69;100798.38;4903924;28;119716;-80
2022/06/20 09:19:53;;;;;;;6.90;2.85;;;;;;;19.92;57.08;100794.63;4882498;28;121518;-80
2022/06/20 09:22:28;;;;;;;7.45;3.10;;;;;;;19.86;59.16;100799.44;4908985;28;120450;-80
2022/06/20 09:25:06;;;;;;;7.75;3.60;;;;;;;19.79;59.23;100796.44;4919621;28;120427;-80
2022/06/20 09:28:00;;;;;;;5.50;3.65;;;;;;;19.72;59.88;100805.31;4912004;28;119782;-80
2022/06/20 09:31:16;;;;;;;7.30;3.78;;;;;;;19.63;58.90;100801.53;4914936;28;119425;-80
2022/06/20 09:34:13;;;;;;;7.95;4.20;;;;;;;19.62;61.27;100807.63;4915685;28;120257;-80
2022/06/20 09:36:51;;;;;;;6.57;3.72;;;;;;;19.66;61.88;100802.56;4912595;28;119834;-81
2022/06/20 09:39:34;;;;;;;8.32;4.20;;;;;;;19.69;62.30;100798.00;4913091;28;122225;-80
2022/06/20 09:42:10;;;;;;;6.10;3.97;;;;;;;19.72;62.89;100800.50;4916270;28;121767;-80
2022/06/20 09:44:39;;;;;;;5.65;3.20;;;;;;;19.73;62.53;100802.03;4917983;28;119868;-80
2022/06/20 09:47:35;;;;;;;5.30;2.88;;;;;;;19.72;60.63;100794.94;4913820;28;119466;-81
2022/06/20 09:50:14;;;;;;;11.00;3.03;;;;;;;19.67;59.76;100808.88;4903904;28;120415;-80
2022/06/20 09:53:05;;;;;;;7.18;3.10;;;;;;;19.50;59.39;100794.97;4918546;28;119832;-80
2022/06/20 09:55:45;;;;;;;8.43;3.65;;;;;;;19.46;59.82;100798.03;4898164;28;120719;-80
2022/06/20 09:58:35;;;;;;;7.30;3.28;;;;;;;19.36;60.21;100805.13;4897154;28;119801;-80
2022/06/20 10:01:31;;;;;;;9.02;3.30;;;;;;;19.21;59.71;100813.75;4914402;28;119467;-80
2022/06/20 10:04:24;;;;;;;12.00;4.63;;;;;;;19.13;61.04;100814.75;4879373;28;121172;-80
2022/06/20 10:07:20;;;;;;;12.02;4.40;;;;;;;19.02;61.81;100819.06;4915975;28;119876;-80
2022/06/20 10:10:15;;;;;;;10.93;4.80;;;;;;;18.94;62.33;100814.53;4901058;28;122061;-79
2022/06/20 10:12:59;;;;;;;12.07;4.63;;;;;;;18.86;62.42;100810.72;4914430;28;119595;-80
2022/06/20 10:15:49;;;;;;;11.00;4.70;;;;;;;18.81;62.77;100815.00;4922174;28;119555;-80
2022/06/20 10:18:33;;;;;;;10.30;4.20;;;;;;;18.79;63.83;100805.66;4917111;28;119918;-80
2022/06/20 10:21:10;;;;;;;8.48;4.50;;;;;;;18.76;64.87;100796.31;4917598;28;119356;-80
2022/06/20 10:23:49;;;;;;;9.77;3.75;;;;;;;18.89;64.83;100801.38;4914037;28;119786;-80
2022/06/20 10:26:22;;;;;;;5.03;3.40;;;;;;;18.98;65.08;100778.88;4916556;28;119400;-80
2022/06/20 10:29:22;;;;;;;6.75;3.03;;;;;;;19.14;64.50;100788.47;4894496;28;119812;-80
2022/06/20 10:32:08;;;;;;;5.40;3.38;;;;;;;19.22;64.65;100779.13;4920198;28;119954;-81
2022/06/20 10:35:03;;;;;;;4.10;2.75;;;;;;;19.36;63.39;100779.31;4917801;28;120311;-80
2022/06/20 10:38:23;;;;;;;6.85;3.65;;;;;;;19.56;63.58;100802.06;4911793;28;119612;-79
2022/06/20 10:41:06;;;;;;;9.00;3.88;;;;;;;19.66;63.38;100818.50;4919941;28;119637;-80
2022/06/20 10:44:08;;;;;;;18.73;5.07;;;;;;;19.63;63.01;100837.72;4920601;28;120483;-80
2022/06/20 10:46:42;;;;;;;9.80;3.33;;;;;;;19.32;61.55;100810.19;4916853;28;119796;-80
2022/06/20 10:49:26;;;;;;;;;;;;;;;19.22;62.08;100822.84;4921370;28;119719;-80
2022/06/20 10:52:08;;;;;;;6.13;3.60;;;;;;;18.99;62.54;100802.63;4920103;28;119570;-80
2022/06/20 10:54:53;;;;;;;14.20;7.28;;;;;;;18.87;63.07;100815.75;4935574;28;120240;-80
2022/06/20 10:57:27;;;;;;;14.43;7.20;;;;;;;18.69;63.82;100825.38;4916488;28;119814;-80
2022/06/20 11:00:10;;;;;;;9.85;5.22;;;;;;;18.63;64.01;100815.50;4916850;28;120188;-80
2022/06/20 11:02:45;;;;;;;14.23;7.33;;;;;;;18.53;64.92;100814.19;4918032;28;119666;-80
2022/06/20 11:05:38;;;;;;;11.60;6.45;;;;;;;18.48;65.35;100815.72;4905330;28;121224;-80
2022/06/20 11:08:24;;;;;;;13.57;6.10;;;;;;;18.48;66.08;100815.72;4902718;28;121441;-80
2022/06/20 11:11:19;;;;;;;11.68;6.38;;;;;;;18.50;66.55;100812.44;4915361;28;119668;-80
2022/06/20 11:14:05;;;;;;;15.23;7.22;;;;;;;18.53;66.85;100822.53;4895041;28;119431;-80
2022/06/20 11:16:51;;;;;;;16.85;6.57;;;;;;;18.42;66.74;100803.81;4916795;28;119496;-80
2022/06/20 11:20:04;;;;;;;16.17;6.13;;;;;;;18.50;66.76;100829.84;4899365;28;119472;-79
2022/06/20 11:22:35;;;;;;;13.05;6.15;;;;;;;18.38;66.88;100822.75;4807508;29;119846;-80
2022/06/20 11:25:20;;;;;;;11.98;6.10;;;;;;;18.44;66.80;100828.28;4894632;28;119931;-80
2022/06/20 11:27:49;;;;;;;;;;;;;;;18.40;66.70;100820.97;4918355;28;119628;-80
2022/06/20 11:30:24;;;;;;;8.55;5.07;;;;;;;18.34;66.78;100808.34;4917265;28;119983;-80
2022/06/20 11:33:12;;;;;;;7.75;5.47;;;;;;;18.49;67.30;100825.56;4915115;28;120284;-80
2022/06/20 11:36:01;;;;;;;13.27;5.90;;;;;;;18.51;67.35;100830.59;4918530;28;119549;-81
2022/06/20 11:38:38;;;;;;;10.18;5.78;;;;;;;18.44;67.07;100836.63;4919120;28;119198;-80
2022/06/20 11:41:28;;;;;;;9.50;4.95;;;;;;;18.46;65.69;100859.13;4915822;28;121495;-80
2022/06/20 11:44:11;;;;;;;10.88;5.60;;;;;;;18.36;65.88;100853.03;4927724;28;120055;-80
2022/06/20 11:46:49;;;;;;;11.05;5.15;;;;;;;18.28;65.69;100849.22;4916933;28;120414;-80
2022/06/20 11:49:17;;;;;;;7.30;4.63;;;;;;;18.17;65.69;100858.25;4915243;28;120340;-80
2022/06/20 11:51:58;;;;;;;9.07;4.80;;;;;;;18.07;65.54;100860.50;4921956;28;119553;-80
2022/06/20 11:54:42;;;;;;;9.15;4.50;;;;;;;17.98;64.64;100857.16;4926739;28;120242;-80
2022/06/20 11:57:33;;;;;;;13.73;4.78;;;;;;;17.87;65.09;100851.56;4917821;28;119559;-80
2022/06/20 12:00:25;;;;;;;9.10;4.68;;;;;;;17.75;64.59;100851.53;4915642;28;121572;-80
2022/06/20 12:03:10;;;;;;;8.85;4.95;;;;;;;17.70;65.54;100845.91;4898027;28;122198;-80
2022/06/20 12:05:56;;;;;;;7.60;5.13;;;;;;;17.70;66.30;100846.66;4897655;28;119641;-80
2022/06/20 12:08:40;;;;;;;8.70;4.90;;;;;;;17.73;66.59;100856.00;4902774;28;119907;-80
2022/06/20 12:11:38;;;;;;;10.13;5.13;;;;;;;17.73;66.99;100847.69;4914157;28;120708;-80
2022/06/20 12:14:45;;;;;;;8.18;5.53;;;;;;;17.84;67.66;100852.56;4913999;28;119925;-79
2022/06/20 12:17:32;;;;;;;9.80;5.85;;;;;;;17.93;67.91;100850.31;4906521;28;119669;-80
2022/06/20 12:23:21;;;;;;;7.70;5.07;;;;;;;18.02;67.72;100847.34;4917043;28;119598;-80
2022/06/20 12:26:03;;;;;;;11.52;5.53;;;;;;;18.14;68.31;100850.94;4914502;28;120459;-81
2022/06/20 12:28:44;;;;;;;10.90;5.50;;;;;;;18.27;68.66;100850.47;4917536;28;120061;-80
2022/06/20 12:31:27;;;;;;;9.70;5.70;;;;;;;18.38;68.61;100861.63;4913624;28;119762;-81
2022/06/20 12:34:16;;;;;;;12.30;6.03;;;;;;;18.47;68.83;100869.75;4915214;28;119526;-80
2022/06/20 12:37:33;;;;;;;8.35;5.10;;;;;;;18.52;68.44;100882.88;4930665;28;119732;-80
2022/06/20 12:40:05;;;;;;;7.55;3.70;;;;;;;18.38;66.47;100901.25;4882322;28;119909;-80
2022/06/20 12:42:46;;;;;;;5.32;2.75;;;;;;;18.28;65.02;100899.97;4919760;28;120460;-80
2022/06/20 12:45:57;;;;;;;5.00;2.85;;;;;;;18.04;63.76;100891.25;4887637;28;119351;-80